sensor_id;sensor_type;location;lat;lon;timestamp;pressure;altitude;pressure_sealevel;temperature;humidity
62374;BME280;48409;49.030;1.820;2023-03-05T00:01:56;101585.94;;;6.31;58.67
62374;BME280;48409;49.030;1.820;2023-03-05T00:04:21;101584.22;;;6.30;58.48
62374;BME280;48409;49.030;1.820;2023-03-05T00:06:47;101578.97;;;6.30;58.66
62374;BME280;48409;49.030;1.820;2023-03-05T00:09:13;101584.22;;;6.30;58.47
62374;BME280;48409;49.030;1.820;2023-03-05T00:11:38;101587.72;;;6.29;58.47
62374;BME280;48409;49.030;1.820;2023-03-05T00:14:04;101581.63;;;6.28;58.66
62374;BME280;48409;49.030;1.820;2023-03-05T00:16:30;101589.47;;;6.28;58.41
62374;BME280;48409;49.030;1.820;2023-03-05T00:18:57;101585.94;;;6.29;58.73
62374;BME280;48409;49.030;1.820;2023-03-05T00:23:50;101585.97;;;6.27;58.47
62374;BME280;48409;49.030;1.820;2023-03-05T00:26:17;101588.59;;;6.27;58.48
62374;BME280;48409;49.030;1.820;2023-03-05T00:28:43;101590.34;;;6.29;58.56
62374;BME280;48409;49.030;1.820;2023-03-05T00:31:08;101581.63;;;6.28;58.77
62374;BME280;48409;49.030;1.820;2023-03-05T00:33:33;101581.63;;;6.28;58.74
62374;BME280;48409;49.030;1.820;2023-03-05T00:35:58;101581.63;;;6.28;58.71
62374;BME280;48409;49.030;1.820;2023-03-05T00:38:26;101568.53;;;6.26;58.41
62374;BME280;48409;49.030;1.820;2023-03-05T00:40:51;101573.78;;;6.26;58.78
62374;BME280;48409;49.030;1.820;2023-03-05T00:43:16;101577.28;;;6.27;58.79
62374;BME280;48409;49.030;1.820;2023-03-05T00:45:42;101572.06;;;6.25;58.58
62374;BME280;48409;49.030;1.820;2023-03-05T00:48:08;101579.00;;;6.26;58.69
62374;BME280;48409;49.030;1.820;2023-03-05T00:50:33;101571.19;;;6.25;58.71
62374;BME280;48409;49.030;1.820;2023-03-05T00:52:58;101566.81;;;6.25;58.61
62374;BME280;48409;49.030;1.820;2023-03-05T00:55:24;101564.19;;;6.27;58.66
62374;BME280;48409;49.030;1.820;2023-03-05T00:57:49;101558.97;;;6.25;58.70
62374;BME280;48409;49.030;1.820;2023-03-05T01:00:15;101563.31;;;6.26;58.72
62374;BME280;48409;49.030;1.820;2023-03-05T01:02:40;101561.59;;;6.25;58.84
62374;BME280;48409;49.030;1.820;2023-03-05T01:05:06;101555.47;;;6.25;58.64
62374;BME280;48409;49.030;1.820;2023-03-05T01:07:31;101562.47;;;6.26;58.77
62374;BME280;48409;49.030;1.820;2023-03-05T01:09:57;101551.13;;;6.25;58.84
62374;BME280;48409;49.030;1.820;2023-03-05T01:12:22;101561.59;;;6.25;58.83
62374;BME280;48409;49.030;1.820;2023-03-05T01:14:50;101556.34;;;6.25;58.72
62374;BME280;48409;49.030;1.820;2023-03-05T01:17:15;101548.50;;;6.25;58.42
62374;BME280;48409;49.030;1.820;2023-03-05T01:19:40;101544.16;;;6.24;58.73
62374;BME280;48409;49.030;1.820;2023-03-05T01:22:05;101540.66;;;6.25;58.72
62374;BME280;48409;49.030;1.820;2023-03-05T01:24:31;101541.56;;;6.24;58.53
62374;BME280;48409;49.030;1.820;2023-03-05T01:26:56;101537.22;;;6.23;58.76
62374;BME280;48409;49.030;1.820;2023-03-05T01:29:22;101531.94;;;6.25;58.76
62374;BME280;48409;49.030;1.820;2023-03-05T01:31:47;101538.06;;;6.24;58.80
62374;BME280;48409;49.030;1.820;2023-03-05T01:34:13;101529.31;;;6.25;58.79
62374;BME280;48409;49.030;1.820;2023-03-05T01:36:40;101528.47;;;6.24;58.80
62374;BME280;48409;49.030;1.820;2023-03-05T01:39:05;101526.75;;;6.23;58.50
62374;BME280;48409;49.030;1.820;2023-03-05T01:41:31;101524.13;;;6.23;58.57
62374;BME280;48409;49.030;1.820;2023-03-05T01:43:58;101521.53;;;6.23;58.79
62374;BME280;48409;49.030;1.820;2023-03-05T01:49:03;101528.47;;;6.24;58.62
62374;BME280;48409;49.030;1.820;2023-03-05T01:51:31;101511.06;;;6.23;58.89
62374;BME280;48409;49.030;1.820;2023-03-05T01:53:57;101511.91;;;6.24;58.84
62374;BME280;48409;49.030;1.820;2023-03-05T01:56:25;101502.31;;;6.24;58.98
62374;BME280;48409;49.030;1.820;2023-03-05T01:58:51;101496.19;;;6.25;58.94
62374;BME280;48409;49.030;1.820;2023-03-05T02:01:18;101502.31;;;6.24;58.80
62374;BME280;48409;49.030;1.820;2023-03-05T02:03:43;101492.69;;;6.25;58.88
62374;BME280;48409;49.030;1.820;2023-03-05T02:06:09;101484.00;;;6.24;58.63
62374;BME280;48409;49.030;1.820;2023-03-05T02:08:34;101488.34;;;6.25;58.71
62374;BME280;48409;49.030;1.820;2023-03-05T02:11:00;101481.38;;;6.24;58.70
62374;BME280;48409;49.030;1.820;2023-03-05T02:13:27;101480.47;;;6.25;58.83
62374;BME280;48409;49.030;1.820;2023-03-05T02:15:53;101484.00;;;6.24;58.82
62374;BME280;48409;49.030;1.820;2023-03-05T02:18:20;101484.00;;;6.24;58.76
62374;BME280;48409;49.030;1.820;2023-03-05T02:20:50;101466.56;;;6.23;58.75
62374;BME280;48409;49.030;1.820;2023-03-05T02:23:16;101470.91;;;6.24;58.93
62374;BME280;48409;49.030;1.820;2023-03-05T02:25:42;101458.72;;;6.23;58.94
62374;BME280;48409;49.030;1.820;2023-03-05T02:30:35;101462.16;;;6.25;58.73
62374;BME280;48409;49.030;1.820;2023-03-05T02:33:01;101456.94;;;6.25;58.98
62374;BME280;48409;49.030;1.820;2023-03-05T02:35:26;101450.88;;;6.23;58.74
62374;BME280;48409;49.030;1.820;2023-03-05T02:37:52;101450.88;;;6.23;58.64
62374;BME280;48409;49.030;1.820;2023-03-05T02:40:17;101443.88;;;6.24;59.02
62374;BME280;48409;49.030;1.820;2023-03-05T02:42:42;101451.69;;;6.25;58.75
62374;BME280;48409;49.030;1.820;2023-03-05T02:45:08;101449.09;;;6.24;58.80
62374;BME280;48409;49.030;1.820;2023-03-05T02:47:34;101437.78;;;6.23;58.80
62374;BME280;48409;49.030;1.820;2023-03-05T02:49:59;101432.56;;;6.23;58.71
62374;BME280;48409;49.030;1.820;2023-03-05T02:52:24;101435.19;;;6.23;58.86
62374;BME280;48409;49.030;1.820;2023-03-05T02:54:50;101429.94;;;6.23;58.80
62374;BME280;48409;49.030;1.820;2023-03-05T02:57:16;101420.34;;;6.22;58.84
62374;BME280;48409;49.030;1.820;2023-03-05T02:59:42;101429.94;;;6.23;58.90
62374;BME280;48409;49.030;1.820;2023-03-05T03:02:07;101420.34;;;6.22;59.07
62374;BME280;48409;49.030;1.820;2023-03-05T03:04:32;101421.22;;;6.23;59.02
62374;BME280;48409;49.030;1.820;2023-03-05T03:06:57;101414.25;;;6.22;58.92
62374;BME280;48409;49.030;1.820;2023-03-05T03:09:23;101408.16;;;6.21;58.93
62374;BME280;48409;49.030;1.820;2023-03-05T03:11:48;101404.66;;;6.21;58.93
62374;BME280;48409;49.030;1.820;2023-03-05T03:14:13;101409.88;;;6.22;58.98
62374;BME280;48409;49.030;1.820;2023-03-05T03:16:39;101404.66;;;6.22;59.05
62374;BME280;48409;49.030;1.820;2023-03-05T03:19:04;101401.19;;;6.22;58.86
62374;BME280;48409;49.030;1.820;2023-03-05T03:21:30;101397.69;;;6.21;58.93
62374;BME280;48409;49.030;1.820;2023-03-05T03:23:55;101402.06;;;6.21;58.78
62374;BME280;48409;49.030;1.820;2023-03-05T03:26:21;101400.31;;;6.20;59.05
62374;BME280;48409;49.030;1.820;2023-03-05T03:28:46;101401.22;;;6.20;58.89
62374;BME280;48409;49.030;1.820;2023-03-05T03:31:12;101402.06;;;6.21;58.99
62374;BME280;48409;49.030;1.820;2023-03-05T03:33:37;101398.59;;;6.19;59.15
62374;BME280;48409;49.030;1.820;2023-03-05T03:36:03;101398.59;;;6.19;59.05
62374;BME280;48409;49.030;1.820;2023-03-05T03:38:28;101395.97;;;6.20;58.98
62374;BME280;48409;49.030;1.820;2023-03-05T03:40:54;101389.88;;;6.20;58.94
62374;BME280;48409;49.030;1.820;2023-03-05T03:43:19;101391.63;;;6.19;58.80
62374;BME280;48409;49.030;1.820;2023-03-05T03:45:44;101399.47;;;6.19;58.93
62374;BME280;48409;49.030;1.820;2023-03-05T03:48:10;101389.88;;;6.20;58.95
62374;BME280;48409;49.030;1.820;2023-03-05T03:50:39;101388.16;;;6.19;59.13
62374;BME280;48409;49.030;1.820;2023-03-05T03:53:04;101378.56;;;6.19;59.01
62374;BME280;48409;49.030;1.820;2023-03-05T03:55:29;101380.28;;;6.19;59.01
62374;BME280;48409;49.030;1.820;2023-03-05T03:57:55;101368.94;;;6.18;59.12
62374;BME280;48409;49.030;1.820;2023-03-05T04:00:20;101375.09;;;6.17;59.05
62374;BME280;48409;49.030;1.820;2023-03-05T04:02:45;101374.19;;;6.18;59.11
62374;BME280;48409;49.030;1.820;2023-03-05T04:05:10;101370.72;;;6.18;59.01
62374;BME280;48409;49.030;1.820;2023-03-05T04:07:36;101363.75;;;6.17;58.86
62374;BME280;48409;49.030;1.820;2023-03-05T04:10:01;101362.03;;;6.16;59.19
62374;BME280;48409;49.030;1.820;2023-03-05T04:12:27;101368.13;;;6.16;58.94
62374;BME280;48409;49.030;1.820;2023-03-05T04:14:52;101372.50;;;6.16;59.10
62374;BME280;48409;49.030;1.820;2023-03-05T04:17:17;101362.91;;;6.16;58.88
62374;BME280;48409;49.030;1.820;2023-03-05T04:19:42;101369.03;;;6.15;58.94
62374;BME280;48409;49.030;1.820;2023-03-05T04:22:14;101361.19;;;6.15;59.08
62374;BME280;48409;49.030;1.820;2023-03-05T04:24:40;101359.41;;;6.16;59.02
62374;BME280;48409;49.030;1.820;2023-03-05T04:27:05;101359.41;;;6.16;59.18
62374;BME280;48409;49.030;1.820;2023-03-05T04:29:31;101348.97;;;6.14;58.96
62374;BME280;48409;49.030;1.820;2023-03-05T04:31:56;101352.47;;;6.14;59.06
62374;BME280;48409;49.030;1.820;2023-03-05T04:34:21;101351.59;;;6.14;58.86
62374;BME280;48409;49.030;1.820;2023-03-05T04:36:47;101354.19;;;6.14;58.90
62374;BME280;48409;49.030;1.820;2023-03-05T04:39:12;101348.97;;;6.14;59.24
62374;BME280;48409;49.030;1.820;2023-03-05T04:41:37;101348.97;;;6.14;59.09
62374;BME280;48409;49.030;1.820;2023-03-05T04:44:03;101342.03;;;6.11;59.00
62374;BME280;48409;49.030;1.820;2023-03-05T04:46:28;101343.78;;;6.12;58.94
62374;BME280;48409;49.030;1.820;2023-03-05T04:48:53;101335.06;;;6.12;58.96
62374;BME280;48409;49.030;1.820;2023-03-05T04:51:19;101332.47;;;6.10;59.05
62374;BME280;48409;49.030;1.820;2023-03-05T04:53:44;101333.34;;;6.11;58.94
62374;BME280;48409;49.030;1.820;2023-03-05T04:56:09;101327.25;;;6.10;58.95
62374;BME280;48409;49.030;1.820;2023-03-05T04:58:34;101333.34;;;6.11;58.94
62374;BME280;48409;49.030;1.820;2023-03-05T05:01:00;101327.25;;;6.10;59.06
62374;BME280;48409;49.030;1.820;2023-03-05T05:03:26;101328.13;;;6.11;59.13
62374;BME280;48409;49.030;1.820;2023-03-05T05:05:55;101318.50;;;6.10;59.26
62374;BME280;48409;49.030;1.820;2023-03-05T05:08:20;101328.13;;;6.11;59.25
62374;BME280;48409;49.030;1.820;2023-03-05T05:10:53;101319.41;;;6.09;59.09
62374;BME280;48409;49.030;1.820;2023-03-05T05:13:18;101319.41;;;6.09;58.99
62374;BME280;48409;49.030;1.820;2023-03-05T05:15:44;101319.41;;;6.09;58.90
62374;BME280;48409;49.030;1.820;2023-03-05T05:18:09;101314.19;;;6.09;59.10
62374;BME280;48409;49.030;1.820;2023-03-05T05:20:34;101319.41;;;6.09;59.03
62374;BME280;48409;49.030;1.820;2023-03-05T05:23:00;101308.09;;;6.08;59.21
62374;BME280;48409;49.030;1.820;2023-03-05T05:25:25;101308.94;;;6.09;59.12
62374;BME280;48409;49.030;1.820;2023-03-05T05:27:50;101302.88;;;6.08;59.02
62374;BME280;48409;49.030;1.820;2023-03-05T05:30:31;101308.09;;;6.08;59.19
62374;BME280;48409;49.030;1.820;2023-03-05T05:33:00;101306.41;;;6.06;59.08
62374;BME280;48409;49.030;1.820;2023-03-05T05:35:25;101302.00;;;6.08;59.03
62374;BME280;48409;49.030;1.820;2023-03-05T05:37:50;101301.13;;;6.07;59.12
62374;BME280;48409;49.030;1.820;2023-03-05T05:40:16;101299.44;;;6.05;58.88
62374;BME280;48409;49.030;1.820;2023-03-05T05:42:41;101307.28;;;6.05;58.87
62374;BME280;48409;49.030;1.820;2023-03-05T05:45:06;101303.81;;;6.04;58.96
62374;BME280;48409;49.030;1.820;2023-03-05T05:47:32;101309.06;;;6.04;58.90
62374;BME280;48409;49.030;1.820;2023-03-05T05:49:57;101307.28;;;6.03;59.13
62374;BME280;48409;49.030;1.820;2023-03-05T05:52:22;101303.81;;;6.03;59.18
62374;BME280;48409;49.030;1.820;2023-03-05T05:54:48;101302.94;;;6.00;59.20
62374;BME280;48409;49.030;1.820;2023-03-05T05:57:13;101299.50;;;5.98;59.02
62374;BME280;48409;49.030;1.820;2023-03-05T05:59:38;101291.66;;;5.98;59.13
62374;BME280;48409;49.030;1.820;2023-03-05T06:02:04;101295.19;;;5.97;58.95
62374;BME280;48409;49.030;1.820;2023-03-05T06:04:29;101288.19;;;5.96;59.05
62374;BME280;48409;49.030;1.820;2023-03-05T06:06:55;101284.75;;;5.94;59.29
62374;BME280;48409;49.030;1.820;2023-03-05T06:09:20;101288.28;;;5.93;59.03
62374;BME280;48409;49.030;1.820;2023-03-05T06:11:45;101282.16;;;5.93;59.08
62374;BME280;48409;49.030;1.820;2023-03-05T06:14:11;101281.28;;;5.92;58.97
62374;BME280;48409;49.030;1.820;2023-03-05T06:16:36;101282.22;;;5.90;59.04
62374;BME280;48409;49.030;1.820;2023-03-05T06:19:02;101281.38;;;5.89;59.13
62374;BME280;48409;49.030;1.820;2023-03-05T06:21:30;101280.50;;;5.87;58.92
62374;BME280;48409;49.030;1.820;2023-03-05T06:23:55;101286.66;;;5.86;59.08
62374;BME280;48409;49.030;1.820;2023-03-05T06:26:22;101280.59;;;5.84;59.20
62374;BME280;48409;49.030;1.820;2023-03-05T06:28:48;101275.38;;;5.84;59.38
62374;BME280;48409;49.030;1.820;2023-03-05T06:31:15;101281.44;;;5.83;59.21
62374;BME280;48409;49.030;1.820;2023-03-05T06:33:41;101275.38;;;5.82;59.12
62374;BME280;48409;49.030;1.820;2023-03-05T06:36:11;101284.13;;;5.81;59.12
62374;BME280;48409;49.030;1.820;2023-03-05T06:38:37;101278.03;;;5.81;58.94
62374;BME280;48409;49.030;1.820;2023-03-05T06:41:03;101282.38;;;5.80;59.27
62374;BME280;48409;49.030;1.820;2023-03-05T06:43:33;101282.41;;;5.79;59.16
62374;BME280;48409;49.030;1.820;2023-03-05T06:46:03;101288.50;;;5.79;59.16
62374;BME280;48409;49.030;1.820;2023-03-05T06:48:28;101280.69;;;5.78;59.05
62374;BME280;48409;49.030;1.820;2023-03-05T06:50:54;101283.28;;;5.78;59.17
62374;BME280;48409;49.030;1.820;2023-03-05T06:53:19;101285.00;;;5.79;59.04
62374;BME280;48409;49.030;1.820;2023-03-05T06:55:44;101276.34;;;5.77;59.14
62374;BME280;48409;49.030;1.820;2023-03-05T06:58:10;101282.44;;;5.77;59.33
62374;BME280;48409;49.030;1.820;2023-03-05T07:00:35;101287.63;;;5.79;59.32
62374;BME280;48409;49.030;1.820;2023-03-05T07:03:00;101279.78;;;5.79;59.13
62374;BME280;48409;49.030;1.820;2023-03-05T07:05:26;101290.22;;;5.79;59.29
62374;BME280;48409;49.030;1.820;2023-03-05T07:07:51;101285.88;;;5.79;59.31
62374;BME280;48409;49.030;1.820;2023-03-05T07:10:16;101282.38;;;5.80;59.33
62374;BME280;48409;49.030;1.820;2023-03-05T07:12:41;101278.03;;;5.81;59.44
62374;BME280;48409;49.030;1.820;2023-03-05T07:15:07;101279.75;;;5.82;59.34
62374;BME280;48409;49.030;1.820;2023-03-05T07:17:32;101278.84;;;5.83;59.38
62374;BME280;48409;49.030;1.820;2023-03-05T07:19:57;101272.75;;;5.84;59.40
62374;BME280;48409;49.030;1.820;2023-03-05T07:22:22;101276.19;;;5.86;59.23
62374;BME280;48409;49.030;1.820;2023-03-05T07:24:48;101273.56;;;5.86;59.48
62374;BME280;48409;49.030;1.820;2023-03-05T07:27:13;101281.38;;;5.89;59.28
62374;BME280;48409;49.030;1.820;2023-03-05T07:29:38;101276.97;;;5.90;59.34
62374;BME280;48409;49.030;1.820;2023-03-05T07:32:04;101278.72;;;5.91;59.17
62374;BME280;48409;49.030;1.820;2023-03-05T07:34:29;101270.84;;;5.92;59.42
62374;BME280;48409;49.030;1.820;2023-03-05T07:36:54;101281.25;;;5.95;59.50
62374;BME280;48409;49.030;1.820;2023-03-05T07:39:19;101279.50;;;5.96;59.30
62374;BME280;48409;49.030;1.820;2023-03-05T07:41:45;101279.50;;;5.97;59.32
62374;BME280;48409;49.030;1.820;2023-03-05T07:44:11;101270.75;;;5.98;59.54
62374;BME280;48409;49.030;1.820;2023-03-05T07:46:36;101284.66;;;6.00;59.34
62374;BME280;48409;49.030;1.820;2023-03-05T07:49:02;101275.94;;;6.01;59.39
62374;BME280;48409;49.030;1.820;2023-03-05T07:51:27;101279.41;;;6.04;59.62
62374;BME280;48409;49.030;1.820;2023-03-05T07:53:53;101272.41;;;6.06;59.34
62374;BME280;48409;49.030;1.820;2023-03-05T07:56:23;101274.97;;;6.07;59.59
62374;BME280;48409;49.030;1.820;2023-03-05T07:58:49;101272.34;;;6.09;59.46
62374;BME280;48409;49.030;1.820;2023-03-05T08:01:14;101272.34;;;6.09;59.51
62374;BME280;48409;49.030;1.820;2023-03-05T08:03:40;101272.28;;;6.12;59.45
62374;BME280;48409;49.030;1.820;2023-03-05T08:06:06;101267.06;;;6.12;59.46
62374;BME280;48409;49.030;1.820;2023-03-05T08:08:32;101273.09;;;6.14;59.42
62374;BME280;48409;49.030;1.820;2023-03-05T08:11:01;101267.00;;;6.15;59.65
62374;BME280;48409;49.030;1.820;2023-03-05T08:13:27;101261.78;;;6.15;59.61
62374;BME280;48409;49.030;1.820;2023-03-05T08:15:52;101260.00;;;6.16;59.69
62374;BME280;48409;49.030;1.820;2023-03-05T08:18:17;101263.50;;;6.16;59.52
62374;BME280;48409;49.030;1.820;2023-03-05T08:20:43;101261.69;;;6.18;59.75
62374;BME280;48409;49.030;1.820;2023-03-05T08:23:08;101258.22;;;6.19;59.64
62374;BME280;48409;49.030;1.820;2023-03-05T08:25:34;101251.19;;;6.21;59.72
62374;BME280;48409;49.030;1.820;2023-03-05T08:27:59;101258.13;;;6.22;59.90
62374;BME280;48409;49.030;1.820;2023-03-05T08:30:24;101266.84;;;6.24;59.77
62374;BME280;48409;49.030;1.820;2023-03-05T08:32:51;101260.69;;;6.25;59.80
62374;BME280;48409;49.030;1.820;2023-03-05T08:35:16;101258.91;;;6.27;59.74
62374;BME280;48409;49.030;1.820;2023-03-05T08:37:42;101254.56;;;6.26;59.81
62374;BME280;48409;49.030;1.820;2023-03-05T08:40:07;101257.13;;;6.30;59.71
62374;BME280;48409;49.030;1.820;2023-03-05T08:42:33;101258.00;;;6.30;59.90
62374;BME280;48409;49.030;1.820;2023-03-05T08:44:58;101257.09;;;6.33;59.69
62374;BME280;48409;49.030;1.820;2023-03-05T08:47:23;101250.09;;;6.33;60.02
62374;BME280;48409;49.030;1.820;2023-03-05T08:49:50;101246.56;;;6.34;59.95
62374;BME280;48409;49.030;1.820;2023-03-05T08:52:19;101249.16;;;6.36;59.67
62374;BME280;48409;49.030;1.820;2023-03-05T08:54:44;101250.00;;;6.38;59.85
62374;BME280;48409;49.030;1.820;2023-03-05T08:57:10;101242.16;;;6.38;59.85
62374;BME280;48409;49.030;1.820;2023-03-05T08:59:35;101246.47;;;6.40;59.86
62374;BME280;48409;49.030;1.820;2023-03-05T09:02:00;101244.66;;;6.43;59.97
62374;BME280;48409;49.030;1.820;2023-03-05T09:04:26;101244.63;;;6.46;60.01
62374;BME280;48409;49.030;1.820;2023-03-05T09:06:51;101236.75;;;6.47;59.91
62374;BME280;48409;49.030;1.820;2023-03-05T09:09:16;101241.91;;;6.50;59.90
62374;BME280;48409;49.030;1.820;2023-03-05T09:11:44;101240.13;;;6.52;59.84
62374;BME280;48409;49.030;1.820;2023-03-05T09:14:10;101245.31;;;6.56;59.99
62374;BME280;48409;49.030;1.820;2023-03-05T09:16:35;101235.66;;;6.56;59.81
62374;BME280;48409;49.030;1.820;2023-03-05T09:19:02;101237.38;;;6.59;59.89
62374;BME280;48409;49.030;1.820;2023-03-05T09:21:27;101232.97;;;6.61;60.06
62374;BME280;48409;49.030;1.820;2023-03-05T09:23:52;101238.16;;;6.64;59.99
62374;BME280;48409;49.030;1.820;2023-03-05T09:26:23;101241.59;;;6.66;59.99
62374;BME280;48409;49.030;1.820;2023-03-05T09:28:48;101236.28;;;6.69;60.05
62374;BME280;48409;49.030;1.820;2023-03-05T09:31:14;101239.72;;;6.71;60.13
62374;BME280;48409;49.030;1.820;2023-03-05T09:33:39;101231.00;;;6.72;60.02
62374;BME280;48409;49.030;1.820;2023-03-05T09:36:12;101224.78;;;6.76;60.14
62374;BME280;48409;49.030;1.820;2023-03-05T09:38:40;101222.13;;;6.78;59.96
62374;BME280;48409;49.030;1.820;2023-03-05T09:41:06;101218.56;;;6.81;60.04
62374;BME280;48409;49.030;1.820;2023-03-05T09:48:50;101204.47;;;6.88;60.26
62374;BME280;48409;49.030;1.820;2023-03-05T09:51:27;101207.03;;;6.91;59.93
62374;BME280;48409;49.030;1.820;2023-03-05T09:56:28;101192.94;;;6.97;60.25
62374;BME280;48409;49.030;1.820;2023-03-05T09:58:56;101198.06;;;7.01;60.39
62374;BME280;48409;49.030;1.820;2023-03-05T10:01:33;101191.06;;;7.02;60.48
62374;BME280;48409;49.030;1.820;2023-03-05T10:04:04;101190.03;;;7.08;60.16
62374;BME280;48409;49.030;1.820;2023-03-05T10:06:34;101192.56;;;7.12;60.22
62374;BME280;48409;49.030;1.820;2023-03-05T10:09:11;101184.59;;;7.17;60.39
62374;BME280;48409;49.030;1.820;2023-03-05T10:11:39;101185.38;;;7.21;60.61
62374;BME280;48409;49.030;1.820;2023-03-05T10:14:10;101177.41;;;7.25;60.53
62374;BME280;48409;49.030;1.820;2023-03-05T10:22:07;101173.59;;;7.39;60.48
62374;BME280;48409;49.030;1.820;2023-03-05T10:24:47;101174.31;;;7.46;60.71
62374;BME280;48409;49.030;1.820;2023-03-05T10:27:20;101164.59;;;7.49;60.63
62374;BME280;48409;49.030;1.820;2023-03-05T10:30:05;101166.16;;;7.56;60.74
62374;BME280;48409;49.030;1.820;2023-03-05T10:38:01;101160.50;;;7.72;60.58
62374;BME280;48409;49.030;1.820;2023-03-05T10:40:35;101146.41;;;7.76;60.75
62374;BME280;48409;49.030;1.820;2023-03-05T10:45:47;101152.25;;;7.88;60.76
62374;BME280;48409;49.030;1.820;2023-03-05T10:48:15;101151.22;;;7.92;60.62
62374;BME280;48409;49.030;1.820;2023-03-05T10:50:45;101145.88;;;7.96;60.75
62374;BME280;48409;49.030;1.820;2023-03-05T10:53:28;101145.75;;;8.01;60.60
62374;BME280;48409;49.030;1.820;2023-03-05T10:55:59;101155.16;;;8.08;60.80
62374;BME280;48409;49.030;1.820;2023-03-05T10:58:24;101147.19;;;8.12;60.88
62374;BME280;48409;49.030;1.820;2023-03-05T11:04:02;101148.75;;;8.19;60.47
62374;BME280;48409;49.030;1.820;2023-03-05T11:11:43;101136.25;;;8.27;60.65
62374;BME280;48409;49.030;1.820;2023-03-05T11:14:25;101135.31;;;8.30;60.50
62374;BME280;48409;49.030;1.820;2023-03-05T11:16:59;101129.13;;;8.32;60.57
62374;BME280;48409;49.030;1.820;2023-03-05T11:22:14;101130.75;;;8.36;60.64
62374;BME280;48409;49.030;1.820;2023-03-05T11:24:41;101121.84;;;8.41;60.47
62374;BME280;48409;49.030;1.820;2023-03-05T11:27:28;101127.09;;;8.41;60.42
62374;BME280;48409;49.030;1.820;2023-03-05T11:29:55;101117.38;;;8.44;60.54
62374;BME280;48409;49.030;1.820;2023-03-05T11:32:23;101107.66;;;8.48;60.58
62374;BME280;48409;49.030;1.820;2023-03-05T11:34:48;101118.06;;;8.51;60.51
62374;BME280;48409;49.030;1.820;2023-03-05T11:37:18;101118.00;;;8.54;60.56
62374;BME280;48409;49.030;1.820;2023-03-05T11:40:19;101110.94;;;8.56;60.61
62374;BME280;48409;49.030;1.820;2023-03-05T11:42:37;101110.84;;;8.59;60.61
62374;BME280;48409;49.030;1.820;2023-03-05T11:45:04;101110.72;;;8.62;60.46
62374;BME280;48409;49.030;1.820;2023-03-05T11:50:05;101106.13;;;8.69;60.63
62374;BME280;48409;49.030;1.820;2023-03-05T11:52:47;101093.84;;;8.71;60.51
62374;BME280;48409;49.030;1.820;2023-03-05T11:55:16;101105.97;;;8.75;60.64
62374;BME280;48409;49.030;1.820;2023-03-05T11:57:44;101091.88;;;8.78;60.39
62374;BME280;48409;49.030;1.820;2023-03-05T12:00:12;101093.59;;;8.79;60.66
62374;BME280;48409;49.030;1.820;2023-03-05T12:02:40;101091.66;;;8.84;60.57
62374;BME280;48409;49.030;1.820;2023-03-05T12:05:05;101085.53;;;8.85;60.41
62374;BME280;48409;49.030;1.820;2023-03-05T12:07:33;101077.50;;;8.88;60.30
62374;BME280;48409;49.030;1.820;2023-03-05T12:10:00;101073.09;;;8.91;60.46
62374;BME280;48409;49.030;1.820;2023-03-05T12:12:32;101069.53;;;8.92;60.30
62374;BME280;48409;49.030;1.820;2023-03-05T12:20:24;101055.19;;;9.02;60.55
62374;BME280;48409;49.030;1.820;2023-03-05T12:22:52;101049.81;;;9.05;60.53
62374;BME280;48409;49.030;1.820;2023-03-05T12:27:48;101042.63;;;9.10;60.54
62374;BME280;48409;49.030;1.820;2023-03-05T12:32:58;101038.91;;;9.18;60.54
62374;BME280;48409;49.030;1.820;2023-03-05T12:35:28;101025.66;;;9.21;60.65
62374;BME280;48409;49.030;1.820;2023-03-05T12:42:54;101009.66;;;9.27;60.30
62374;BME280;48409;49.030;1.820;2023-03-05T12:45:24;100999.94;;;9.29;60.32
62374;BME280;48409;49.030;1.820;2023-03-05T12:57:51;100970.56;;;9.42;60.13
62374;BME280;48409;49.030;1.820;2023-03-05T13:00:21;100966.13;;;9.44;60.13
62374;BME280;48409;49.030;1.820;2023-03-05T13:02:51;100957.31;;;9.45;60.37
62374;BME280;48409;49.030;1.820;2023-03-05T13:07:45;100957.22;;;9.48;60.34
62374;BME280;48409;49.030;1.820;2023-03-05T13:10:24;100953.66;;;9.49;60.12
62374;BME280;48409;49.030;1.820;2023-03-05T13:12:50;100949.25;;;9.49;60.01
62374;BME280;48409;49.030;1.820;2023-03-05T13:15:20;100938.69;;;9.51;60.00
62374;BME280;48409;49.030;1.820;2023-03-05T13:25:29;100928.88;;;9.56;60.18
62374;BME280;48409;49.030;1.820;2023-03-05T13:28:05;100924.38;;;9.58;59.91
62374;BME280;48409;49.030;1.820;2023-03-05T13:30:34;100929.59;;;9.60;60.03
62374;BME280;48409;49.030;1.820;2023-03-05T13:33:00;100921.66;;;9.61;59.99
62374;BME280;48409;49.030;1.820;2023-03-05T13:35:30;100907.56;;;9.62;60.20
62374;BME280;48409;49.030;1.820;2023-03-05T13:37:56;100913.56;;;9.66;59.98
62374;BME280;48409;49.030;1.820;2023-03-05T13:42:47;100901.22;;;9.68;60.08
62374;BME280;48409;49.030;1.820;2023-03-05T13:45:19;100907.22;;;9.72;59.93
62374;BME280;48409;49.030;1.820;2023-03-05T13:48:19;100902.81;;;9.72;60.07
62374;BME280;48409;49.030;1.820;2023-03-05T13:50:38;100894.84;;;9.74;59.86
62374;BME280;48409;49.030;1.820;2023-03-05T13:55:38;100892.31;;;9.72;59.88
62374;BME280;48409;49.030;1.820;2023-03-05T13:58:03;100879.06;;;9.74;59.83
62374;BME280;48409;49.030;1.820;2023-03-05T14:02:55;100876.53;;;9.72;59.68
62374;BME280;48409;49.030;1.820;2023-03-05T14:05:21;100866.84;;;9.73;59.65
62374;BME280;48409;49.030;1.820;2023-03-05T14:07:50;100872.09;;;9.73;59.50
62374;BME280;48409;49.030;1.820;2023-03-05T14:10:25;100870.41;;;9.72;59.67
62374;BME280;48409;49.030;1.820;2023-03-05T14:12:51;100868.69;;;9.71;59.59
62374;BME280;48409;49.030;1.820;2023-03-05T14:15:22;100855.59;;;9.69;59.51
62374;BME280;48409;49.030;1.820;2023-03-05T14:17:47;100860.84;;;9.69;59.59
62374;BME280;48409;49.030;1.820;2023-03-05T14:20:26;100854.72;;;9.69;59.54
62374;BME280;48409;49.030;1.820;2023-03-05T14:22:53;100841.63;;;9.67;59.56
62374;BME280;48409;49.030;1.820;2023-03-05T14:27:50;100829.47;;;9.64;59.62